Chana, Illinois
Current Conditions -  °F | °C
As of 4:35 PM on Friday 31 Oct 2014 (Local Time) from KRPJ Reporting Station
Overcast Overcast  
Wind Chill: 27°   Ceiling: 4800
Heat Index: 38°   Visibility: 10mi
Dew Point: 19°   Wind: 21mph
Humidity: 48%   Direction: 360°N
Pressure: 30.31"   Gusts: 31mph
Location:  41.98°N, 89.22°W
Report Text: KRPJ 312135Z AUTO 36018G27KT 10SM OVC048 03/M07 A3031 RMK AO2 T00321070
Loading
Personal Weather Stations






























Interactive Weather Map
Tropical Storm Tracking
New forecast layout! Learn more

10-Day Weather Forecast

Advertisements
Track Severe Weather on mobile